Latest Weather Observations for Hopetoun Airport

IDV60801

Issued at 1:31 pm EDT Tuesday 23 December 2014 (issued every 30 minutes, with the page automatically refreshed every 10 minutes)

About weather observations | Map of weather stations | Latest weather observations for VIC | Other Formats
Station Details ID: 077010 Name: HOPETOUN AIRPORT Lat: -35.72 Lon: 142.36 Height: 77.3 m
Data from the previous 72 hours. | See also: Recent months at Hopetoun Airport
Date/Time
EDT
Temp
°C
App
Temp
°C
Dew
Point
Rel
Hum
%
Delta-T
°C
Wind Press
QNH
hPa
Press
MSL
hPa
Rain
since 9 am
mm
Dir
 
Spd
km/h
Gust
km/h
Spd
kts
Gust
kts
23/01:30pm 27.4 25.2 14.4 45 7.8 W 19 33 10 18 1010.1 1009.8 0.0
23/01:00pm 25.9 23.7 14.4 49 6.9 WSW 19 30 10 16 1010.3 1010.0 0.0
23/12:30pm 25.6 23.8 14.4 50 6.7 WSW 17 22 9 12 1010.4 1010.1 0.0
23/12:00pm 25.5 24.1 14.6 51 6.5 SW 15 24 8 13 1010.4 1010.1 0.0
23/11:30am 25.2 24.2 14.6 51 6.3 W 13 20 7 11 1010.5 1010.2 0.0
23/11:00am 24.7 23.6 14.2 52 6.2 WSW 13 24 7 13 1010.4 1010.1 0.0
23/10:30am 24.5 23.3 14.0 52 6.2 SW 13 20 7 11 1010.5 1010.2 0.0
23/10:00am 24.0 23.4 14.7 56 5.6 SW 11 17 6 9 1010.5 1010.2 0.0
23/09:30am 22.5 22.3 14.6 61 4.7 S 9 15 5 8 1010.4 1010.1 0.0
23/09:00am 22.4 21.1 14.8 62 4.5 SSW 15 20 8 11 1010.4 1010.1 0.2
23/08:30am 21.5 20.5 15.6 69 3.5 SSW 15 20 8 11 1010.2 1009.9 0.2
23/08:00am 20.1 19.4 15.3 74 2.8 SW 13 17 7 9 1009.9 1009.6 0.2
23/07:30am 19.6 20.3 15.5 77 2.4 WSW 6 9 3 5 1009.5 1009.2 0.2
23/07:00am 17.0 17.9 15.0 88 1.2 W 4 4 2 2 1009.0 1008.7 0.2
23/06:30am 15.4 16.0 13.2 87 1.2 SW 2 2 1 1 1008.8 1008.5 0.2
23/06:00am 16.0 16.0 14.2 89 1.0 WSW 7 9 4 5 1008.7 1008.4 0.2
23/05:30am 17.0 18.2 15.0 88 1.2 ENE 2 6 1 3 1008.4 1008.1 0.2
23/05:00am 16.8 18.2 14.4 86 1.4 CALM 0 0 0 0 1008.3 1008.0 0.2
23/04:30am 17.9 19.2 15.2 84 1.6 ENE 2 4 1 2 1008.2 1007.9 0.2
23/04:00am 18.6 20.1 15.7 83 1.7 E 2 4 1 2 1008.2 1007.9 0.2
23/03:30am 19.7 20.9 16.0 79 2.2 ESE 4 6 2 3 1008.2 1007.9 0.2
23/03:00am 20.0 21.2 16.0 78 2.4 SSW 4 7 2 4 1008.5 1008.2 0.2
23/02:30am 20.2 19.7 15.8 76 2.6 S 13 17 7 9 1008.6 1008.3 0.0
23/02:00am 20.6 21.0 15.4 72 3.1 WSW 7 19 4 10 1008.9 1008.6 0.0
23/01:30am 20.3 22.0 16.3 78 2.4 ENE 2 4 1 2 1009.1 1008.8 0.0
23/01:00am 20.7 21.3 15.3 71 3.2 SE 6 11 3 6 1008.7 1008.4 0.0
23/12:30am 20.8 21.1 15.1 70 3.4 SSW 7 11 4 6 1008.7 1008.4 0.0
23/12:00am 21.6 20.9 14.3 63 4.3 SSE 11 15 6 8 1008.4 1008.1 0.0
 
Date/Time
EDT
Temp
°C
App
Temp
°C
Dew
Point
Rel
Hum
%
Delta-T
°C
Wind Press
QNH
hPa
Press
MSL
hPa
Rain
since 9 am
mm
Dir
 
Spd
km/h
Gust
km/h
Spd
kts
Gust
kts
22/11:30pm 21.7 21.1 14.6 64 4.2 SSE 11 13 6 7 1008.6 1008.3 0.0
22/11:00pm 22.9 22.8 13.9 57 5.3 SSW 7 9 4 5 1008.8 1008.5 0.0
22/10:30pm 24.3 22.6 11.3 44 7.3 SW 11 17 6 9 1008.5 1008.2 0.0
22/10:00pm 25.0 22.0 10.5 40 8.1 SW 17 22 9 12 1007.8 1007.5 0.0
22/09:30pm 25.4 22.2 10.1 38 8.5 WSW 17 24 9 13 1007.8 1007.5 0.0
22/09:00pm 26.0 20.0 10.2 37 8.8 WSW 32 39 17 21 1007.5 1007.2 0.0
22/08:30pm 27.1 19.7 9.9 34 9.6 WSW 39 46 21 25 1007.5 1007.2 0.0
22/08:00pm 28.2 22.4 9.5 31 10.4 WSW 30 41 16 22 1007.5 1007.2 0.0
22/07:30pm 28.8 22.9 9.0 29 11.0 WSW 30 37 16 20 1007.0 1006.7 0.0
22/07:00pm 29.0 21.4 9.2 29 11.1 WSW 39 48 21 26 1006.9 1006.6 0.0
22/06:30pm 30.1 20.8 9.1 27 11.7 WSW 48 61 26 33 1006.4 1006.1 0.0
22/06:00pm 31.4 22.4 7.1 22 13.3 W 44 59 24 32 1006.1 1005.8 0.0
22/05:30pm 32.4 23.8 6.6 20 14.0 W 41 52 22 28 1005.3 1005.0 0.0
22/05:06pm 33.5 26.0 4.2 16 15.4 W 33 56 18 30 1005.2 1004.9 0.0
22/05:00pm 33.8 26.3 3.6 15 15.8 W 32 39 17 21 1005.1 1004.8 0.0
22/04:45pm 34.4 28.5 2.0 13 16.5 WNW 22 44 12 24 1005.0 1004.7 0.0
22/04:30pm 34.7 31.4 2.3 13 16.6 NNW 9 24 5 13 1004.8 1004.5 0.0
22/04:00pm 34.8 30.5 3.4 14 16.5 W 15 22 8 12 1005.2 1004.9 0.0
22/03:30pm 34.8 29.8 3.4 14 16.4 W 19 24 10 13 1005.5 1005.2 0.0
22/03:00pm 34.5 28.8 3.1 14 16.3 NNW 22 52 12 28 1006.4 1006.1 0.0
22/02:30pm 34.8 28.1 3.4 14 16.4 NNE 28 46 15 25 1006.5 1006.2 0.0
22/02:10pm 35.0 27.9 1.4 12 17.0 NW 28 57 15 31 1006.3 1006.0 0.0
22/02:00pm 35.6 29.3 1.8 12 17.3 NW 24 32 13 17 1006.5 1006.2 0.0
22/01:30pm 35.6 30.3 1.8 12 17.3 N 19 24 10 13 1006.7 1006.4 0.0
22/01:00pm 35.4 30.3 2.8 13 17.0 N 19 26 10 14 1007.0 1006.7 0.0
22/12:30pm 35.3 30.7 3.8 14 16.6 N 17 22 9 12 1007.4 1007.1 0.0
22/12:00pm 34.5 29.2 3.1 14 16.3 NNE 20 30 11 16 1007.7 1007.4 0.0
22/11:30am 34.1 28.6 3.8 15 15.9 NNE 22 30 12 16 1007.9 1007.6 0.0
22/11:00am 33.4 27.7 5.0 17 15.1 NNE 24 32 13 17 1008.1 1007.8 0.0
22/10:30am 31.8 25.8 5.3 19 14.0 NE 26 32 14 17 1008.4 1008.1 0.0
22/10:00am 30.0 24.4 5.3 21 13.0 NE 24 32 13 17 1008.5 1008.2 0.0
22/09:30am 29.4 23.4 5.5 22 12.5 NE 26 35 14 19 1009.1 1008.8 0.0
22/09:00am 27.8 23.0 5.4 24 11.6 ENE 20 30 11 16 1009.0 1008.7 0.0
22/08:30am 26.4 22.5 5.4 26 10.8 ENE 15 20 8 11 1009.1 1008.8 0.0
22/08:00am 24.9 21.5 5.7 29 9.9 E 13 19 7 10 1009.3 1009.0 0.0
22/07:30am 22.9 19.9 6.2 34 8.5 E 11 15 6 8 1009.1 1008.8 0.0
22/07:00am 21.8 18.7 7.2 39 7.6 ESE 13 17 7 9 1008.7 1008.4 0.0
22/06:30am 21.5 18.5 7.7 41 7.2 SE 13 15 7 8 1008.7 1008.4 0.0
22/06:00am 21.4 18.8 7.6 41 7.2 SE 11 17 6 9 1008.4 1008.1 0.0
22/05:30am 21.5 18.3 7.0 39 7.4 SSE 13 19 7 10 1008.2 1007.9 0.0
22/05:00am 23.5 20.5 5.9 32 9.0 ESE 11 15 6 8 1007.8 1007.5 0.0
22/04:30am 22.1 18.8 4.7 32 8.6 SE 11 13 6 7 1007.8 1007.5 0.0
22/04:00am 23.1 20.2 4.6 30 9.2 ESE 9 13 5 7 1008.0 1007.7 0.0
22/03:30am 23.2 19.8 4.2 29 9.4 E 11 20 6 11 1008.2 1007.9 0.0
22/03:00am 23.6 21.5 6.8 34 8.7 SSE 7 13 4 7 1008.6 1008.3 0.0
22/02:30am 23.5 21.0 6.7 34 8.7 SE 9 11 5 6 1008.8 1008.5 0.0
22/02:00am 24.2 21.6 7.8 35 8.7 SE 11 13 6 7 1009.3 1009.0 0.0
22/01:30am 25.0 22.5 8.1 34 9.0 SE 11 15 6 8 1009.5 1009.2 0.0
22/01:00am 25.9 22.7 8.4 33 9.5 SSE 15 24 8 13 1009.7 1009.4 0.0
22/12:30am 26.8 23.2 8.3 31 10.0 SE 17 22 9 12 1009.9 1009.6 0.0
22/12:00am 27.7 24.2 5.3 24 11.6 SSE 13 20 7 11 1010.0 1009.7 0.0
 
Date/Time
EDT
Temp
°C
App
Temp
°C
Dew
Point
Rel
Hum
%
Delta-T
°C
Wind Press
QNH
hPa
Press
MSL
hPa
Rain
since 9 am
mm
Dir
 
Spd
km/h
Gust
km/h
Spd
kts
Gust
kts
21/11:30pm 24.6 20.9 2.1 23 10.8 ENE 11 11 6 6 1009.9 1009.6 0.0
21/11:00pm 25.8 22.4 1.8 21 11.5 E 9 11 5 6 1010.0 1009.7 0.0
21/10:30pm 25.1 22.0 1.3 21 11.3 E 7 9 4 5 1010.1 1009.8 0.0
21/10:00pm 26.7 23.7 1.9 20 12.0 ESE 7 9 4 5 1010.0 1009.7 0.0
21/09:30pm 28.1 25.2 1.6 18 12.9 E 6 6 3 3 1010.0 1009.7 0.0
21/09:00pm 31.2 28.6 4.1 18 14.0 ESE 7 9 4 5 1009.9 1009.6 0.0
21/08:30pm 32.2 29.4 3.2 16 14.9 SE 7 9 4 5 1009.7 1009.4 0.0
21/08:00pm 34.1 30.5 2.8 14 16.2 SSE 11 15 6 8 1009.4 1009.1 0.0
21/07:30pm 35.1 32.2 1.5 12 17.1 W 6 7 3 4 1009.2 1008.9 0.0
21/07:00pm 34.8 31.8 2.3 13 16.7 S 7 11 4 6 1009.1 1008.8 0.0
21/06:30pm 34.8 32.8 2.3 13 16.7 WNW 2 6 1 3 1009.1 1008.8 0.0
21/06:00pm 35.6 31.4 1.8 12 17.3 W 13 20 7 11 1009.1 1008.8 0.0
21/05:30pm 35.0 32.3 2.5 13 16.8 SSW 6 13 3 7 1009.2 1008.9 0.0
21/05:00pm 35.2 32.5 2.6 13 16.9 S 6 15 3 8 1009.5 1009.2 0.0
21/04:30pm 35.1 31.4 2.6 13 16.8 SSW 11 26 6 14 1009.7 1009.4 0.0
21/04:00pm 35.4 30.8 1.7 12 17.2 WSW 15 24 8 13 1010.2 1009.9 0.0
21/03:30pm 34.5 31.9 3.1 14 16.3 SE 6 15 3 8 1010.4 1010.1 0.0
21/03:00pm 36.1 32.2 3.3 13 17.3 WSW 13 28 7 15 1010.8 1010.5 0.0
21/02:30pm 34.1 31.0 3.8 15 15.9 NW 9 19 5 10 1011.4 1011.1 0.0
21/02:00pm 34.7 31.5 3.3 14 16.4 SW 9 20 5 11 1011.7 1011.4 0.0
21/01:30pm 34.2 31.5 3.9 15 15.9 W 7 20 4 11 1012.2 1012.0 0.0
21/01:00pm 33.6 30.8 5.2 17 15.2 NE 9 17 5 9 1012.6 1012.4 0.0
21/12:30pm 32.9 28.1 5.5 18 14.7 NW 20 35 11 19 1013.0 1012.8 0.0
21/12:00pm 32.4 29.0 5.8 19 14.3 N 13 30 7 16 1013.2 1013.0 0.0
21/11:30am 31.7 27.2 6.0 20 13.8 NNW 19 33 10 18 1013.5 1013.3 0.0
21/11:00am 30.8 26.2 6.6 22 13.0 N 20 35 11 19 1013.6 1013.4 0.0
21/10:30am 30.2 25.4 7.4 24 12.4 N 22 33 12 18 1013.8 1013.6 0.0
21/10:00am 28.7 24.3 7.3 26 11.5 NNE 20 26 11 14 1013.7 1013.5 0.0
21/09:30am 27.2 23.0 8.1 30 10.3 NNE 20 28 11 15 1014.1 1013.9 0.0
21/09:00am 26.0 22.1 8.5 33 9.5 NE 19 22 10 12 1014.1 1013.9 0.0
21/08:30am 23.4 19.4 8.3 38 8.0 NE 19 24 10 13 1014.2 1014.0 0.0
21/08:00am 21.8 17.9 8.7 43 7.0 NE 19 24 10 13 1014.1 1013.9 0.0
21/07:30am 20.1 17.0 8.8 48 6.0 ENE 15 20 8 11 1013.9 1013.7 0.0
21/07:00am 18.1 14.9 8.4 53 5.0 ENE 15 19 8 10 1013.7 1013.5 0.0
21/06:30am 16.9 13.6 8.1 56 4.5 ENE 15 17 8 9 1013.4 1013.2 0.0
21/06:00am 15.7 13.0 7.5 58 4.1 ENE 11 13 6 7 1013.4 1013.2 0.0
21/05:30am 16.7 14.1 7.6 55 4.6 E 11 13 6 7 1013.6 1013.4 0.0
21/05:00am 17.7 14.4 8.0 53 5.0 ENE 15 19 8 10 1013.1 1012.9 0.0
21/04:30am 17.6 14.6 7.6 52 5.1 E 13 15 7 8 1013.1 1012.9 0.0
21/04:00am 18.0 14.5 7.4 50 5.4 E 15 19 8 10 1012.8 1012.6 0.0
21/03:30am 18.7 15.1 6.9 46 5.9 E 15 19 8 10 1013.1 1012.9 0.0
21/03:00am 18.8 14.7 6.3 44 6.2 ESE 17 20 9 11 1012.9 1012.7 0.0
21/02:30am 19.7 16.0 6.1 41 6.8 ESE 15 19 8 10 1013.1 1012.9 0.0
21/02:00am 19.9 17.0 6.6 42 6.7 SE 11 15 6 8 1013.4 1013.2 0.0
21/01:30am 20.0 17.0 6.0 40 7.0 SE 11 15 6 8 1013.8 1013.6 0.0
21/01:00am 18.3 16.8 3.0 36 7.1 CALM 0 2 0 1 1013.9 1013.7 0.0
21/12:30am 19.2 16.9 3.0 34 7.6 ESE 4 4 2 2 1014.1 1013.9 0.0
21/12:00am 20.3 18.8 7.0 42 6.8 SE 4 7 2 4 1014.3 1014.1 0.0
 
Date/Time
EDT
Temp
°C
App
Temp
°C
Dew
Point
Rel
Hum
%
Delta-T
°C
Wind Press
QNH
hPa
Press
MSL
hPa
Rain
since 9 am
mm
Dir
 
Spd
km/h
Gust
km/h
Spd
kts
Gust
kts
20/11:30pm 21.5 20.4 8.4 43 6.9 SE 4 7 2 4 1014.4 1014.2 0.0
20/11:00pm 21.5 20.3 6.6 38 7.6 E 2 4 1 2 1014.5 1014.3 0.0
20/10:30pm 21.8 19.8 4.4 32 8.5 E 4 4 2 2 1014.4 1014.2 0.0
20/10:00pm 23.9 22.4 6.7 33 8.9 SE 4 6 2 3 1014.4 1014.2 0.0
20/09:30pm 25.2 23.6 6.4 30 9.8 SE 4 4 2 2 1014.3 1014.1 0.0
20/09:00pm 26.9 25.2 5.8 26 11.0 S 4 6 2 3 1014.2 1014.0 0.0
20/08:30pm 28.4 26.5 6.5 25 11.6 S 6 9 3 5 1014.1 1013.9 0.0
20/08:00pm 29.1 26.6 6.5 24 12.0 SW 9 13 5 7 1014.1 1013.9 0.0
20/07:30pm 29.3 27.2 6.7 24 12.1 SSW 7 13 4 7 1014.0 1013.8 0.0
20/07:00pm 30.0 27.9 6.6 23 12.5 S 7 17 4 9 1013.8 1013.6 0.0
20/06:30pm 29.4 26.9 6.7 24 12.1 SSE 9 13 5 7 1013.6 1013.4 0.0
20/06:00pm 29.8 28.0 7.1 24 12.3 WSW 6 13 3 7 1013.7 1013.5 0.0
20/05:30pm 29.2 26.3 6.6 24 12.1 S 11 19 6 10 1014.0 1013.8 0.0
20/05:00pm 28.7 26.2 6.7 25 11.7 SSW 9 19 5 10 1014.3 1014.1 0.0
20/04:30pm 28.5 26.0 6.6 25 11.6 SW 9 22 5 12 1014.8 1014.6 0.0
20/04:00pm 28.8 26.4 6.8 25 11.7 W 9 19 5 10 1015.2 1015.0 0.0
20/03:30pm 28.8 26.7 6.8 25 11.8 W 7 15 4 8 1015.8 1015.6 0.0
20/03:00pm 27.6 24.6 5.8 25 11.4 WSW 11 20 6 11 1016.4 1016.1 0.0
20/02:30pm 26.8 24.5 5.7 26 10.9 WSW 7 22 4 12 1016.9 1016.6 0.0
20/02:00pm 26.1 23.8 5.7 27 10.5 WSW 7 19 4 10 1017.3 1017.0 0.0

Other Formats:

Comma delimited format used in spreadsheet applications
http://www.bom.gov.au/fwo/IDV60801/IDV60801.94838.axf

JavaScript Object Notation format (JSON) in row-major order
http://www.bom.gov.au/fwo/IDV60801/IDV60801.94838.json